sensor_id;sensor_type;location;lat;lon;timestamp;P1;durP1;ratioP1;P2;durP2;ratioP2
71973;SDS011;59840;52.122;5.404;2022-09-30T00:01:32;1.88;;;0.65;;
71973;SDS011;59840;52.122;5.404;2022-09-30T00:04:00;2.95;;;0.82;;
71973;SDS011;59840;52.122;5.404;2022-09-30T00:06:27;2.95;;;0.80;;
71973;SDS011;59840;52.122;5.404;2022-09-30T00:08:55;1.07;;;0.70;;
71973;SDS011;59840;52.122;5.404;2022-09-30T00:11:24;2.75;;;0.75;;
71973;SDS011;59840;52.122;5.404;2022-09-30T00:13:54;2.28;;;0.85;;
71973;SDS011;59840;52.122;5.404;2022-09-30T00:16:21;1.90;;;0.50;;
71973;SDS011;59840;52.122;5.404;2022-09-30T00:18:49;1.98;;;0.80;;
71973;SDS011;59840;52.122;5.404;2022-09-30T00:21:16;1.23;;;0.67;;
71973;SDS011;59840;52.122;5.404;2022-09-30T00:23:43;2.53;;;0.50;;
71973;SDS011;59840;52.122;5.404;2022-09-30T00:26:11;1.33;;;0.65;;
71973;SDS011;59840;52.122;5.404;2022-09-30T00:28:40;2.78;;;0.70;;
71973;SDS011;59840;52.122;5.404;2022-09-30T00:31:11;1.92;;;0.70;;
71973;SDS011;59840;52.122;5.404;2022-09-30T00:33:40;0.87;;;0.53;;
71973;SDS011;59840;52.122;5.404;2022-09-30T00:36:07;1.02;;;0.50;;
71973;SDS011;59840;52.122;5.404;2022-09-30T00:38:34;1.13;;;0.60;;
71973;SDS011;59840;52.122;5.404;2022-09-30T00:41:01;1.98;;;0.60;;
71973;SDS011;59840;52.122;5.404;2022-09-30T00:48:52;0.60;;;0.40;;
71973;SDS011;59840;52.122;5.404;2022-09-30T00:51:26;0.90;;;0.60;;
71973;SDS011;59840;52.122;5.404;2022-09-30T00:53:59;1.73;;;0.45;;
71973;SDS011;59840;52.122;5.404;2022-09-30T00:56:29;1.10;;;0.30;;
71973;SDS011;59840;52.122;5.404;2022-09-30T01:01:54;6.13;;;0.57;;
71973;SDS011;59840;52.122;5.404;2022-09-30T01:04:22;1.30;;;0.52;;
71973;SDS011;59840;52.122;5.404;2022-09-30T01:06:50;1.02;;;0.60;;
71973;SDS011;59840;52.122;5.404;2022-09-30T01:09:17;0.85;;;0.40;;
71973;SDS011;59840;52.122;5.404;2022-09-30T01:11:45;0.70;;;0.40;;
71973;SDS011;59840;52.122;5.404;2022-09-30T01:14:22;1.40;;;0.50;;
71973;SDS011;59840;52.122;5.404;2022-09-30T01:22:23;3.33;;;0.50;;
71973;SDS011;59840;52.122;5.404;2022-09-30T01:30:47;0.70;;;0.40;;
71973;SDS011;59840;52.122;5.404;2022-09-30T01:33:19;0.80;;;0.40;;
71973;SDS011;59840;52.122;5.404;2022-09-30T01:41:34;0.88;;;0.50;;
71973;SDS011;59840;52.122;5.404;2022-09-30T01:44:15;0.95;;;0.40;;
71973;SDS011;59840;52.122;5.404;2022-09-30T01:46:54;0.68;;;0.20;;
71973;SDS011;59840;52.122;5.404;2022-09-30T01:55:02;0.50;;;0.30;;
71973;SDS011;59840;52.122;5.404;2022-09-30T01:58:08;0.50;;;0.28;;
71973;SDS011;59840;52.122;5.404;2022-09-30T02:00:41;1.15;;;0.30;;
71973;SDS011;59840;52.122;5.404;2022-09-30T02:03:13;0.75;;;0.30;;
71973;SDS011;59840;52.122;5.404;2022-09-30T02:06:03;1.27;;;0.30;;
71973;SDS011;59840;52.122;5.404;2022-09-30T02:11:26;0.90;;;0.30;;
71973;SDS011;59840;52.122;5.404;2022-09-30T02:13:57;0.93;;;0.40;;
71973;SDS011;59840;52.122;5.404;2022-09-30T02:19:42;0.50;;;0.23;;
71973;SDS011;59840;52.122;5.404;2022-09-30T02:22:13;1.13;;;0.45;;
71973;SDS011;59840;52.122;5.404;2022-09-30T02:24:43;2.35;;;0.47;;
71973;SDS011;59840;52.122;5.404;2022-09-30T02:27:15;1.08;;;0.30;;
71973;SDS011;59840;52.122;5.404;2022-09-30T02:29:50;1.52;;;0.30;;
71973;SDS011;59840;52.122;5.404;2022-09-30T02:32:25;0.40;;;0.20;;
71973;SDS011;59840;52.122;5.404;2022-09-30T02:35:21;1.05;;;0.40;;
71973;SDS011;59840;52.122;5.404;2022-09-30T02:38:15;0.73;;;0.40;;
71973;SDS011;59840;52.122;5.404;2022-09-30T02:40:45;0.82;;;0.32;;
71973;SDS011;59840;52.122;5.404;2022-09-30T02:43:17;0.70;;;0.35;;
71973;SDS011;59840;52.122;5.404;2022-09-30T02:46:02;1.17;;;0.50;;
71973;SDS011;59840;52.122;5.404;2022-09-30T02:51:19;1.30;;;0.30;;
71973;SDS011;59840;52.122;5.404;2022-09-30T02:56:46;0.80;;;0.32;;
71973;SDS011;59840;52.122;5.404;2022-09-30T02:59:20;1.10;;;0.23;;
71973;SDS011;59840;52.122;5.404;2022-09-30T03:01:48;0.82;;;0.20;;
71973;SDS011;59840;52.122;5.404;2022-09-30T03:04:15;3.45;;;0.40;;
71973;SDS011;59840;52.122;5.404;2022-09-30T03:06:50;1.52;;;0.35;;
71973;SDS011;59840;52.122;5.404;2022-09-30T03:09:17;0.70;;;0.30;;
71973;SDS011;59840;52.122;5.404;2022-09-30T03:11:44;4.47;;;0.30;;
71973;SDS011;59840;52.122;5.404;2022-09-30T03:14:17;0.63;;;0.30;;
71973;SDS011;59840;52.122;5.404;2022-09-30T03:19:50;2.05;;;0.40;;
71973;SDS011;59840;52.122;5.404;2022-09-30T03:30:25;2.05;;;0.50;;
71973;SDS011;59840;52.122;5.404;2022-09-30T03:33:09;0.75;;;0.40;;
71973;SDS011;59840;52.122;5.404;2022-09-30T03:39:35;2.47;;;0.30;;
71973;SDS011;59840;52.122;5.404;2022-09-30T03:44:55;0.52;;;0.30;;
71973;SDS011;59840;52.122;5.404;2022-09-30T03:47:30;0.63;;;0.30;;
71973;SDS011;59840;52.122;5.404;2022-09-30T03:50:02;0.90;;;0.35;;
71973;SDS011;59840;52.122;5.404;2022-09-30T03:52:32;1.33;;;0.40;;
71973;SDS011;59840;52.122;5.404;2022-09-30T03:55:01;5.68;;;0.32;;
71973;SDS011;59840;52.122;5.404;2022-09-30T03:57:29;0.70;;;0.30;;
71973;SDS011;59840;52.122;5.404;2022-09-30T03:59:56;0.82;;;0.30;;
71973;SDS011;59840;52.122;5.404;2022-09-30T04:02:23;1.33;;;0.32;;
71973;SDS011;59840;52.122;5.404;2022-09-30T04:04:51;0.63;;;0.30;;
71973;SDS011;59840;52.122;5.404;2022-09-30T04:07:17;0.88;;;0.40;;
71973;SDS011;59840;52.122;5.404;2022-09-30T04:09:44;0.80;;;0.30;;
71973;SDS011;59840;52.122;5.404;2022-09-30T04:12:11;1.02;;;0.43;;
71973;SDS011;59840;52.122;5.404;2022-09-30T04:14:38;0.68;;;0.30;;
71973;SDS011;59840;52.122;5.404;2022-09-30T04:17:04;0.83;;;0.30;;
71973;SDS011;59840;52.122;5.404;2022-09-30T04:19:31;4.95;;;0.30;;
71973;SDS011;59840;52.122;5.404;2022-09-30T04:22:03;1.08;;;0.50;;
71973;SDS011;59840;52.122;5.404;2022-09-30T04:24:29;1.60;;;0.30;;
71973;SDS011;59840;52.122;5.404;2022-09-30T04:26:56;1.25;;;0.20;;
71973;SDS011;59840;52.122;5.404;2022-09-30T04:29:22;2.00;;;0.40;;
71973;SDS011;59840;52.122;5.404;2022-09-30T04:31:49;0.60;;;0.30;;
71973;SDS011;59840;52.122;5.404;2022-09-30T04:34:16;0.65;;;0.20;;
71973;SDS011;59840;52.122;5.404;2022-09-30T04:36:42;0.45;;;0.20;;
71973;SDS011;59840;52.122;5.404;2022-09-30T04:39:09;1.13;;;0.32;;
71973;SDS011;59840;52.122;5.404;2022-09-30T04:41:36;1.00;;;0.30;;
71973;SDS011;59840;52.122;5.404;2022-09-30T04:44:03;0.70;;;0.30;;
71973;SDS011;59840;52.122;5.404;2022-09-30T04:46:33;0.70;;;0.30;;
71973;SDS011;59840;52.122;5.404;2022-09-30T04:49:02;1.92;;;0.30;;
71973;SDS011;59840;52.122;5.404;2022-09-30T04:51:34;0.60;;;0.30;;
71973;SDS011;59840;52.122;5.404;2022-09-30T04:54:01;1.07;;;0.40;;
71973;SDS011;59840;52.122;5.404;2022-09-30T04:56:28;1.95;;;0.47;;
71973;SDS011;59840;52.122;5.404;2022-09-30T04:58:55;0.70;;;0.30;;
71973;SDS011;59840;52.122;5.404;2022-09-30T05:01:21;1.58;;;0.30;;
71973;SDS011;59840;52.122;5.404;2022-09-30T05:03:48;1.85;;;0.30;;
71973;SDS011;59840;52.122;5.404;2022-09-30T05:06:15;1.67;;;0.40;;
71973;SDS011;59840;52.122;5.404;2022-09-30T05:08:42;0.75;;;0.30;;
71973;SDS011;59840;52.122;5.404;2022-09-30T05:11:16;0.70;;;0.40;;
71973;SDS011;59840;52.122;5.404;2022-09-30T05:13:43;3.03;;;0.30;;
71973;SDS011;59840;52.122;5.404;2022-09-30T05:16:11;1.50;;;0.47;;
71973;SDS011;59840;52.122;5.404;2022-09-30T05:18:38;0.50;;;0.30;;
71973;SDS011;59840;52.122;5.404;2022-09-30T05:21:07;1.33;;;0.40;;
71973;SDS011;59840;52.122;5.404;2022-09-30T05:23:35;0.73;;;0.40;;
71973;SDS011;59840;52.122;5.404;2022-09-30T05:26:02;2.20;;;0.40;;
71973;SDS011;59840;52.122;5.404;2022-09-30T05:28:30;0.95;;;0.45;;
71973;SDS011;59840;52.122;5.404;2022-09-30T05:30:58;0.57;;;0.33;;
71973;SDS011;59840;52.122;5.404;2022-09-30T05:33:30;1.70;;;0.50;;
71973;SDS011;59840;52.122;5.404;2022-09-30T05:35:59;0.77;;;0.38;;
71973;SDS011;59840;52.122;5.404;2022-09-30T05:38:27;1.55;;;0.28;;
71973;SDS011;59840;52.122;5.404;2022-09-30T05:40:54;1.23;;;0.40;;
71973;SDS011;59840;52.122;5.404;2022-09-30T05:43:20;0.60;;;0.20;;
71973;SDS011;59840;52.122;5.404;2022-09-30T05:45:56;1.92;;;0.35;;
71973;SDS011;59840;52.122;5.404;2022-09-30T05:48:23;0.80;;;0.30;;
71973;SDS011;59840;52.122;5.404;2022-09-30T05:50:55;2.47;;;0.43;;
71973;SDS011;59840;52.122;5.404;2022-09-30T05:53:22;2.72;;;0.55;;
71973;SDS011;59840;52.122;5.404;2022-09-30T05:55:49;4.40;;;0.50;;
71973;SDS011;59840;52.122;5.404;2022-09-30T05:58:17;1.42;;;0.63;;
71973;SDS011;59840;52.122;5.404;2022-09-30T06:00:45;0.88;;;0.50;;
71973;SDS011;59840;52.122;5.404;2022-09-30T06:03:13;2.67;;;0.60;;
71973;SDS011;59840;52.122;5.404;2022-09-30T06:05:40;1.35;;;0.50;;
71973;SDS011;59840;52.122;5.404;2022-09-30T06:08:07;1.13;;;0.50;;
71973;SDS011;59840;52.122;5.404;2022-09-30T06:10:38;1.63;;;0.70;;
71973;SDS011;59840;52.122;5.404;2022-09-30T06:13:09;1.00;;;0.40;;
71973;SDS011;59840;52.122;5.404;2022-09-30T06:15:36;2.75;;;0.40;;
71973;SDS011;59840;52.122;5.404;2022-09-30T06:18:04;1.40;;;0.40;;
71973;SDS011;59840;52.122;5.404;2022-09-30T06:20:31;1.13;;;0.60;;
71973;SDS011;59840;52.122;5.404;2022-09-30T06:22:58;2.92;;;0.55;;
71973;SDS011;59840;52.122;5.404;2022-09-30T06:25:26;1.52;;;0.70;;
71973;SDS011;59840;52.122;5.404;2022-09-30T06:27:56;2.75;;;0.70;;
71973;SDS011;59840;52.122;5.404;2022-09-30T06:30:23;2.50;;;0.98;;
71973;SDS011;59840;52.122;5.404;2022-09-30T06:32:50;1.53;;;0.70;;
71973;SDS011;59840;52.122;5.404;2022-09-30T06:35:19;1.85;;;0.73;;
71973;SDS011;59840;52.122;5.404;2022-09-30T06:37:49;1.08;;;0.73;;
71973;SDS011;59840;52.122;5.404;2022-09-30T06:40:16;1.67;;;0.70;;
71973;SDS011;59840;52.122;5.404;2022-09-30T06:42:43;5.00;;;0.65;;
71973;SDS011;59840;52.122;5.404;2022-09-30T06:45:09;0.60;;;0.40;;
71973;SDS011;59840;52.122;5.404;2022-09-30T06:47:55;1.20;;;0.55;;
71973;SDS011;59840;52.122;5.404;2022-09-30T06:50:26;2.45;;;0.75;;
71973;SDS011;59840;52.122;5.404;2022-09-30T06:52:56;2.60;;;1.00;;
71973;SDS011;59840;52.122;5.404;2022-09-30T06:55:25;2.28;;;0.90;;
71973;SDS011;59840;52.122;5.404;2022-09-30T06:57:52;2.77;;;1.00;;
71973;SDS011;59840;52.122;5.404;2022-09-30T07:00:20;1.42;;;0.80;;
71973;SDS011;59840;52.122;5.404;2022-09-30T07:02:48;1.38;;;0.90;;
71973;SDS011;59840;52.122;5.404;2022-09-30T07:05:17;1.67;;;0.88;;
71973;SDS011;59840;52.122;5.404;2022-09-30T07:07:44;2.15;;;1.20;;
71973;SDS011;59840;52.122;5.404;2022-09-30T07:10:11;4.17;;;1.23;;
71973;SDS011;59840;52.122;5.404;2022-09-30T07:12:38;2.00;;;1.60;;
71973;SDS011;59840;52.122;5.404;2022-09-30T07:15:06;3.38;;;1.38;;
71973;SDS011;59840;52.122;5.404;2022-09-30T07:17:38;3.38;;;2.25;;
71973;SDS011;59840;52.122;5.404;2022-09-30T07:20:05;3.25;;;2.42;;
71973;SDS011;59840;52.122;5.404;2022-09-30T07:22:33;3.67;;;3.00;;
71973;SDS011;59840;52.122;5.404;2022-09-30T07:25:00;4.55;;;3.60;;
71973;SDS011;59840;52.122;5.404;2022-09-30T07:27:30;6.13;;;3.97;;
71973;SDS011;59840;52.122;5.404;2022-09-30T07:29:58;6.32;;;4.63;;
71973;SDS011;59840;52.122;5.404;2022-09-30T07:32:45;7.13;;;5.65;;
71973;SDS011;59840;52.122;5.404;2022-09-30T07:35:12;7.70;;;5.57;;
71973;SDS011;59840;52.122;5.404;2022-09-30T07:37:39;8.63;;;6.38;;
71973;SDS011;59840;52.122;5.404;2022-09-30T07:40:06;10.95;;;6.68;;
71973;SDS011;59840;52.122;5.404;2022-09-30T07:42:36;9.88;;;7.15;;
71973;SDS011;59840;52.122;5.404;2022-09-30T07:45:04;11.18;;;7.05;;
71973;SDS011;59840;52.122;5.404;2022-09-30T07:47:31;9.23;;;6.80;;
71973;SDS011;59840;52.122;5.404;2022-09-30T07:49:58;9.82;;;7.30;;
71973;SDS011;59840;52.122;5.404;2022-09-30T07:52:25;11.65;;;7.82;;
71973;SDS011;59840;52.122;5.404;2022-09-30T07:54:52;11.43;;;8.00;;
71973;SDS011;59840;52.122;5.404;2022-09-30T07:57:18;14.20;;;8.10;;
71973;SDS011;59840;52.122;5.404;2022-09-30T07:59:46;10.97;;;7.97;;
71973;SDS011;59840;52.122;5.404;2022-09-30T08:02:14;12.95;;;9.02;;
71973;SDS011;59840;52.122;5.404;2022-09-30T08:04:43;13.57;;;9.30;;
71973;SDS011;59840;52.122;5.404;2022-09-30T08:07:11;15.43;;;10.20;;
71973;SDS011;59840;52.122;5.404;2022-09-30T08:09:39;15.20;;;10.30;;
71973;SDS011;59840;52.122;5.404;2022-09-30T08:12:06;15.53;;;9.87;;
71973;SDS011;59840;52.122;5.404;2022-09-30T08:14:33;16.73;;;10.27;;
71973;SDS011;59840;52.122;5.404;2022-09-30T08:17:00;16.50;;;10.63;;
71973;SDS011;59840;52.122;5.404;2022-09-30T08:19:27;15.93;;;10.32;;
71973;SDS011;59840;52.122;5.404;2022-09-30T08:21:55;15.63;;;10.73;;
71973;SDS011;59840;52.122;5.404;2022-09-30T08:24:23;16.00;;;10.63;;
71973;SDS011;59840;52.122;5.404;2022-09-30T08:26:51;18.30;;;10.75;;
71973;SDS011;59840;52.122;5.404;2022-09-30T08:29:20;15.73;;;11.13;;
71973;SDS011;59840;52.122;5.404;2022-09-30T08:32:07;17.58;;;11.50;;
71973;SDS011;59840;52.122;5.404;2022-09-30T08:34:33;16.95;;;11.52;;
71973;SDS011;59840;52.122;5.404;2022-09-30T08:37:01;17.03;;;10.37;;
71973;SDS011;59840;52.122;5.404;2022-09-30T08:39:34;16.63;;;9.88;;
71973;SDS011;59840;52.122;5.404;2022-09-30T08:52:59;12.07;;;8.15;;
71973;SDS011;59840;52.122;5.404;2022-09-30T08:55:40;10.57;;;7.85;;
71973;SDS011;59840;52.122;5.404;2022-09-30T08:58:18;9.48;;;7.50;;
71973;SDS011;59840;52.122;5.404;2022-09-30T09:00:51;10.45;;;7.45;;
71973;SDS011;59840;52.122;5.404;2022-09-30T09:03:27;8.20;;;6.33;;
71973;SDS011;59840;52.122;5.404;2022-09-30T09:12:14;6.60;;;5.63;;
71973;SDS011;59840;52.122;5.404;2022-09-30T09:15:37;5.95;;;5.35;;
71973;SDS011;59840;52.122;5.404;2022-09-30T09:17:57;7.30;;;5.60;;
71973;SDS011;59840;52.122;5.404;2022-09-30T09:20:52;5.60;;;5.00;;
71973;SDS011;59840;52.122;5.404;2022-09-30T09:23:21;5.97;;;5.32;;
71973;SDS011;59840;52.122;5.404;2022-09-30T09:25:48;6.80;;;5.38;;
71973;SDS011;59840;52.122;5.404;2022-09-30T09:31:02;7.30;;;5.20;;
71973;SDS011;59840;52.122;5.404;2022-09-30T09:33:30;8.63;;;6.13;;
71973;SDS011;59840;52.122;5.404;2022-09-30T09:44:22;7.83;;;6.53;;
71973;SDS011;59840;52.122;5.404;2022-09-30T09:47:07;8.57;;;7.35;;
71973;SDS011;59840;52.122;5.404;2022-09-30T09:49:42;10.02;;;7.15;;
71973;SDS011;59840;52.122;5.404;2022-09-30T09:54:44;6.35;;;5.75;;
71973;SDS011;59840;52.122;5.404;2022-09-30T09:57:14;7.67;;;6.30;;
71973;SDS011;59840;52.122;5.404;2022-09-30T10:02:27;8.00;;;6.70;;
71973;SDS011;59840;52.122;5.404;2022-09-30T10:04:56;5.55;;;4.85;;
71973;SDS011;59840;52.122;5.404;2022-09-30T10:07:26;7.57;;;5.82;;
71973;SDS011;59840;52.122;5.404;2022-09-30T10:10:10;5.80;;;5.07;;
71973;SDS011;59840;52.122;5.404;2022-09-30T10:12:48;5.13;;;4.63;;
71973;SDS011;59840;52.122;5.404;2022-09-30T10:15:19;7.38;;;4.65;;
71973;SDS011;59840;52.122;5.404;2022-09-30T10:17:49;6.22;;;4.28;;
71973;SDS011;59840;52.122;5.404;2022-09-30T10:20:33;5.78;;;4.25;;
71973;SDS011;59840;52.122;5.404;2022-09-30T10:23:07;3.70;;;3.40;;
71973;SDS011;59840;52.122;5.404;2022-09-30T10:25:55;4.65;;;3.55;;
71973;SDS011;59840;52.122;5.404;2022-09-30T10:28:43;3.13;;;2.90;;
71973;SDS011;59840;52.122;5.404;2022-09-30T10:31:37;3.40;;;3.10;;
71973;SDS011;59840;52.122;5.404;2022-09-30T10:36:55;4.47;;;2.93;;
71973;SDS011;59840;52.122;5.404;2022-09-30T10:39:27;3.70;;;2.90;;
71973;SDS011;59840;52.122;5.404;2022-09-30T10:42:07;3.38;;;2.78;;
71973;SDS011;59840;52.122;5.404;2022-09-30T10:44:44;3.95;;;2.80;;
71973;SDS011;59840;52.122;5.404;2022-09-30T10:47:12;3.45;;;2.70;;
71973;SDS011;59840;52.122;5.404;2022-09-30T10:52:21;2.90;;;2.55;;
71973;SDS011;59840;52.122;5.404;2022-09-30T10:54:52;2.60;;;2.20;;
71973;SDS011;59840;52.122;5.404;2022-09-30T11:00:07;2.33;;;1.90;;
71973;SDS011;59840;52.122;5.404;2022-09-30T11:05:26;2.28;;;1.48;;
71973;SDS011;59840;52.122;5.404;2022-09-30T11:10:50;2.10;;;1.40;;
71973;SDS011;59840;52.122;5.404;2022-09-30T11:18:52;1.95;;;1.55;;
71973;SDS011;59840;52.122;5.404;2022-09-30T11:24:02;2.55;;;1.50;;
71973;SDS011;59840;52.122;5.404;2022-09-30T11:26:55;1.42;;;1.20;;
71973;SDS011;59840;52.122;5.404;2022-09-30T11:32:37;1.30;;;1.10;;
71973;SDS011;59840;52.122;5.404;2022-09-30T11:35:29;2.22;;;0.88;;
71973;SDS011;59840;52.122;5.404;2022-09-30T11:38:13;1.58;;;0.85;;
71973;SDS011;59840;52.122;5.404;2022-09-30T11:49:05;4.70;;;0.90;;
71973;SDS011;59840;52.122;5.404;2022-09-30T11:51:43;1.05;;;0.70;;
71973;SDS011;59840;52.122;5.404;2022-09-30T12:02:30;1.30;;;0.95;;
71973;SDS011;59840;52.122;5.404;2022-09-30T12:05:09;1.67;;;1.10;;
71973;SDS011;59840;52.122;5.404;2022-09-30T12:07:42;2.05;;;1.08;;
71973;SDS011;59840;52.122;5.404;2022-09-30T12:12:46;1.63;;;1.33;;
71973;SDS011;59840;52.122;5.404;2022-09-30T12:15:17;1.45;;;1.35;;
71973;SDS011;59840;52.122;5.404;2022-09-30T12:17:50;2.00;;;1.70;;
71973;SDS011;59840;52.122;5.404;2022-09-30T12:20:50;1.83;;;1.40;;
71973;SDS011;59840;52.122;5.404;2022-09-30T12:23:30;1.30;;;1.17;;
71973;SDS011;59840;52.122;5.404;2022-09-30T12:26:03;3.25;;;1.30;;
71973;SDS011;59840;52.122;5.404;2022-09-30T12:40:28;1.35;;;1.25;;
71973;SDS011;59840;52.122;5.404;2022-09-30T12:46:20;1.10;;;1.00;;
71973;SDS011;59840;52.122;5.404;2022-09-30T12:51:29;1.57;;;1.47;;
71973;SDS011;59840;52.122;5.404;2022-09-30T12:54:01;1.15;;;0.88;;
71973;SDS011;59840;52.122;5.404;2022-09-30T12:56:30;1.60;;;1.27;;
71973;SDS011;59840;52.122;5.404;2022-09-30T12:58:59;1.98;;;1.00;;
71973;SDS011;59840;52.122;5.404;2022-09-30T13:01:27;2.35;;;1.20;;
71973;SDS011;59840;52.122;5.404;2022-09-30T13:07:03;1.20;;;1.10;;
71973;SDS011;59840;52.122;5.404;2022-09-30T13:09:18;1.10;;;1.00;;
71973;SDS011;59840;52.122;5.404;2022-09-30T13:14:38;1.88;;;1.67;;
71973;SDS011;59840;52.122;5.404;2022-09-30T13:19:45;6.85;;;2.38;;
71973;SDS011;59840;52.122;5.404;2022-09-30T13:33:27;4.40;;;2.78;;
71973;SDS011;59840;52.122;5.404;2022-09-30T13:35:51;3.33;;;3.03;;
71973;SDS011;59840;52.122;5.404;2022-09-30T13:38:31;4.28;;;2.60;;
71973;SDS011;59840;52.122;5.404;2022-09-30T13:41:07;3.05;;;2.60;;
71973;SDS011;59840;52.122;5.404;2022-09-30T13:43:42;4.00;;;2.00;;
71973;SDS011;59840;52.122;5.404;2022-09-30T13:46:37;2.40;;;1.88;;
71973;SDS011;59840;52.122;5.404;2022-09-30T13:52:06;2.67;;;1.40;;
71973;SDS011;59840;52.122;5.404;2022-09-30T13:54:41;4.18;;;1.90;;
71973;SDS011;59840;52.122;5.404;2022-09-30T13:57:20;2.57;;;1.93;;
71973;SDS011;59840;52.122;5.404;2022-09-30T13:59:59;2.10;;;1.90;;
71973;SDS011;59840;52.122;5.404;2022-09-30T14:05:33;1.70;;;1.60;;
71973;SDS011;59840;52.122;5.404;2022-09-30T14:17:20;1.98;;;1.08;;
71973;SDS011;59840;52.122;5.404;2022-09-30T14:22:35;1.63;;;0.98;;
71973;SDS011;59840;52.122;5.404;2022-09-30T14:25:03;2.77;;;1.17;;
71973;SDS011;59840;52.122;5.404;2022-09-30T14:27:53;3.42;;;1.30;;
71973;SDS011;59840;52.122;5.404;2022-09-30T14:30:31;1.88;;;1.38;;
71973;SDS011;59840;52.122;5.404;2022-09-30T14:33:24;1.55;;;1.08;;
71973;SDS011;59840;52.122;5.404;2022-09-30T14:35:55;3.42;;;1.08;;
71973;SDS011;59840;52.122;5.404;2022-09-30T14:38:29;1.33;;;1.00;;
71973;SDS011;59840;52.122;5.404;2022-09-30T14:41:03;1.13;;;1.00;;
71973;SDS011;59840;52.122;5.404;2022-09-30T14:43:39;1.45;;;0.80;;
71973;SDS011;59840;52.122;5.404;2022-09-30T14:46:18;1.70;;;0.80;;
71973;SDS011;59840;52.122;5.404;2022-09-30T14:48:50;1.30;;;1.10;;
71973;SDS011;59840;52.122;5.404;2022-09-30T14:51:18;2.27;;;1.33;;
71973;SDS011;59840;52.122;5.404;2022-09-30T14:53:58;3.20;;;1.27;;
71973;SDS011;59840;52.122;5.404;2022-09-30T14:56:33;2.95;;;1.42;;
71973;SDS011;59840;52.122;5.404;2022-09-30T14:59:17;1.73;;;1.48;;
71973;SDS011;59840;52.122;5.404;2022-09-30T15:01:46;1.70;;;1.60;;
71973;SDS011;59840;52.122;5.404;2022-09-30T15:04:18;2.70;;;1.33;;
71973;SDS011;59840;52.122;5.404;2022-09-30T15:06:52;2.17;;;1.10;;
71973;SDS011;59840;52.122;5.404;2022-09-30T15:12:03;2.33;;;1.23;;
71973;SDS011;59840;52.122;5.404;2022-09-30T15:14:32;1.83;;;1.48;;
71973;SDS011;59840;52.122;5.404;2022-09-30T15:16:58;2.97;;;1.57;;
71973;SDS011;59840;52.122;5.404;2022-09-30T15:19:32;2.65;;;1.70;;
71973;SDS011;59840;52.122;5.404;2022-09-30T15:22:00;4.57;;;2.17;;
71973;SDS011;59840;52.122;5.404;2022-09-30T15:24:30;1.90;;;1.55;;
71973;SDS011;59840;52.122;5.404;2022-09-30T15:26:58;3.75;;;1.48;;
71973;SDS011;59840;52.122;5.404;2022-09-30T15:29:26;2.03;;;1.83;;
71973;SDS011;59840;52.122;5.404;2022-09-30T15:34:45;2.22;;;1.70;;
71973;SDS011;59840;52.122;5.404;2022-09-30T15:37:18;2.38;;;1.70;;
71973;SDS011;59840;52.122;5.404;2022-09-30T15:39:48;2.97;;;1.90;;
71973;SDS011;59840;52.122;5.404;2022-09-30T15:42:54;2.23;;;2.03;;
71973;SDS011;59840;52.122;5.404;2022-09-30T15:45:32;2.25;;;2.00;;
71973;SDS011;59840;52.122;5.404;2022-09-30T15:50:48;2.78;;;2.13;;
71973;SDS011;59840;52.122;5.404;2022-09-30T15:53:23;2.42;;;2.22;;
71973;SDS011;59840;52.122;5.404;2022-09-30T16:09:32;4.37;;;1.70;;
71973;SDS011;59840;52.122;5.404;2022-09-30T16:12:02;2.20;;;2.00;;
71973;SDS011;59840;52.122;5.404;2022-09-30T16:14:40;3.17;;;1.95;;
71973;SDS011;59840;52.122;5.404;2022-09-30T16:17:15;3.15;;;2.25;;
71973;SDS011;59840;52.122;5.404;2022-09-30T16:19:57;3.05;;;2.75;;
71973;SDS011;59840;52.122;5.404;2022-09-30T16:25:00;2.80;;;2.50;;
71973;SDS011;59840;52.122;5.404;2022-09-30T16:27:37;2.65;;;2.17;;
71973;SDS011;59840;52.122;5.404;2022-09-30T16:30:04;2.50;;;2.30;;
71973;SDS011;59840;52.122;5.404;2022-09-30T16:32:34;4.75;;;2.17;;
71973;SDS011;59840;52.122;5.404;2022-09-30T16:35:04;2.60;;;1.97;;
71973;SDS011;59840;52.122;5.404;2022-09-30T16:37:31;3.15;;;2.30;;
71973;SDS011;59840;52.122;5.404;2022-09-30T16:39:59;8.48;;;4.53;;
71973;SDS011;59840;52.122;5.404;2022-09-30T16:42:35;25.40;;;7.60;;
71973;SDS011;59840;52.122;5.404;2022-09-30T16:45:02;43.03;;;12.75;;
71973;SDS011;59840;52.122;5.404;2022-09-30T16:47:29;42.20;;;14.50;;
71973;SDS011;59840;52.122;5.404;2022-09-30T16:49:56;33.92;;;12.38;;
71973;SDS011;59840;52.122;5.404;2022-09-30T16:52:22;28.45;;;10.77;;
71973;SDS011;59840;52.122;5.404;2022-09-30T16:54:51;22.85;;;9.68;;
71973;SDS011;59840;52.122;5.404;2022-09-30T16:57:18;15.90;;;7.38;;
71973;SDS011;59840;52.122;5.404;2022-09-30T16:59:44;18.37;;;8.97;;
71973;SDS011;59840;52.122;5.404;2022-09-30T17:02:12;21.60;;;10.48;;
71973;SDS011;59840;52.122;5.404;2022-09-30T17:04:39;13.38;;;8.43;;
71973;SDS011;59840;52.122;5.404;2022-09-30T17:07:09;8.90;;;7.03;;
71973;SDS011;59840;52.122;5.404;2022-09-30T17:09:37;4.15;;;3.75;;
71973;SDS011;59840;52.122;5.404;2022-09-30T17:12:04;3.57;;;3.27;;
71973;SDS011;59840;52.122;5.404;2022-09-30T17:14:31;2.75;;;2.40;;
71973;SDS011;59840;52.122;5.404;2022-09-30T17:16:58;3.78;;;2.80;;
71973;SDS011;59840;52.122;5.404;2022-09-30T17:19:24;2.85;;;2.30;;
71973;SDS011;59840;52.122;5.404;2022-09-30T17:21:55;2.95;;;2.17;;
71973;SDS011;59840;52.122;5.404;2022-09-30T17:24:21;2.43;;;2.20;;
71973;SDS011;59840;52.122;5.404;2022-09-30T17:26:48;2.60;;;2.40;;
71973;SDS011;59840;52.122;5.404;2022-09-30T17:29:16;2.80;;;2.20;;
71973;SDS011;59840;52.122;5.404;2022-09-30T17:31:57;3.15;;;2.35;;
71973;SDS011;59840;52.122;5.404;2022-09-30T17:34:24;4.05;;;2.50;;
71973;SDS011;59840;52.122;5.404;2022-09-30T17:36:52;2.53;;;2.13;;
71973;SDS011;59840;52.122;5.404;2022-09-30T17:39:20;2.33;;;2.13;;
71973;SDS011;59840;52.122;5.404;2022-09-30T17:41:46;3.90;;;2.28;;
71973;SDS011;59840;52.122;5.404;2022-09-30T17:44:31;2.90;;;2.60;;
71973;SDS011;59840;52.122;5.404;2022-09-30T17:46:58;3.05;;;2.53;;
71973;SDS011;59840;52.122;5.404;2022-09-30T17:49:29;3.60;;;2.83;;
71973;SDS011;59840;52.122;5.404;2022-09-30T17:51:57;2.60;;;2.40;;
71973;SDS011;59840;52.122;5.404;2022-09-30T17:54:24;3.58;;;3.17;;
71973;SDS011;59840;52.122;5.404;2022-09-30T17:56:52;3.75;;;3.05;;
71973;SDS011;59840;52.122;5.404;2022-09-30T17:59:19;2.92;;;2.55;;
71973;SDS011;59840;52.122;5.404;2022-09-30T18:01:48;2.83;;;2.50;;
71973;SDS011;59840;52.122;5.404;2022-09-30T18:04:16;4.28;;;2.63;;
71973;SDS011;59840;52.122;5.404;2022-09-30T18:06:46;2.83;;;2.38;;
71973;SDS011;59840;52.122;5.404;2022-09-30T18:09:13;3.70;;;2.30;;
71973;SDS011;59840;52.122;5.404;2022-09-30T18:11:40;3.28;;;2.33;;
71973;SDS011;59840;52.122;5.404;2022-09-30T18:14:09;2.93;;;2.60;;
71973;SDS011;59840;52.122;5.404;2022-09-30T18:16:37;5.07;;;3.85;;
71973;SDS011;59840;52.122;5.404;2022-09-30T18:19:04;9.50;;;6.05;;
71973;SDS011;59840;52.122;5.404;2022-09-30T18:21:33;4.30;;;3.60;;
71973;SDS011;59840;52.122;5.404;2022-09-30T18:24:04;3.63;;;2.50;;
71973;SDS011;59840;52.122;5.404;2022-09-30T18:26:31;4.00;;;2.50;;
71973;SDS011;59840;52.122;5.404;2022-09-30T18:29:01;3.17;;;2.72;;
71973;SDS011;59840;52.122;5.404;2022-09-30T18:31:29;3.05;;;2.60;;
71973;SDS011;59840;52.122;5.404;2022-09-30T18:34:03;4.40;;;2.60;;
71973;SDS011;59840;52.122;5.404;2022-09-30T18:36:30;4.00;;;2.65;;
71973;SDS011;59840;52.122;5.404;2022-09-30T18:38:58;2.83;;;2.60;;
71973;SDS011;59840;52.122;5.404;2022-09-30T18:41:26;3.95;;;2.67;;
71973;SDS011;59840;52.122;5.404;2022-09-30T18:43:53;5.88;;;3.40;;
71973;SDS011;59840;52.122;5.404;2022-09-30T18:46:28;3.13;;;2.83;;
71973;SDS011;59840;52.122;5.404;2022-09-30T18:48:55;3.08;;;2.78;;